sensor_id;sensor_type;location;lat;lon;timestamp;pressure;altitude;pressure_sealevel;temperature;humidity
4123;BME280;2075;51.062;6.920;2023-02-16T00:02:25;40144.72;;;-144.48;100.00
4123;BME280;2075;51.062;6.920;2023-02-16T00:05:22;37841.84;;;-144.48;100.00
4123;BME280;2075;51.062;6.920;2023-02-16T00:08:11;33240.88;;;-144.48;100.00
4123;BME280;2075;51.062;6.920;2023-02-16T00:10:56;35540.56;;;-144.48;100.00
4123;BME280;2075;51.062;6.920;2023-02-16T00:14:01;37330.31;;;-144.48;100.00
4123;BME280;2075;51.062;6.920;2023-02-16T00:16:46;36307.50;;;-144.48;100.00
4123;BME280;2075;51.062;6.920;2023-02-16T00:19:34;34007.25;;;-144.48;100.00
4123;BME280;2075;51.062;6.920;2023-02-16T00:22:20;31963.94;;;-144.48;100.00
4123;BME280;2075;51.062;6.920;2023-02-16T00:25:06;28646.22;;;-144.48;100.00
4123;BME280;2075;51.062;6.920;2023-02-16T00:27:51;21766.06;;;-144.48;100.00
4123;BME280;2075;51.062;6.920;2023-02-16T00:30:38;21511.53;;;-144.48;100.00
4123;BME280;2075;51.062;6.920;2023-02-16T00:33:24;22020.63;;;-144.48;100.00
4123;BME280;2075;51.062;6.920;2023-02-16T00:36:10;19730.22;;;-144.48;100.00
4123;BME280;2075;51.062;6.920;2023-02-16T00:38:55;16424.66;;;-144.48;100.00
4123;BME280;2075;51.062;6.920;2023-02-16T00:41:41;16933.00;;;-144.48;100.00
4123;BME280;2075;51.062;6.920;2023-02-16T00:44:40;16170.53;;;-144.48;100.00
4123;BME280;2075;51.062;6.920;2023-02-16T00:47:31;12614.66;;;-144.48;100.00
4123;BME280;2075;51.062;6.920;2023-02-16T00:50:21;13630.22;;;-144.48;100.00
4123;BME280;2075;51.062;6.920;2023-02-16T00:53:07;18712.78;;;-144.48;100.00
4123;BME280;2075;51.062;6.920;2023-02-16T00:55:54;22020.63;;;-144.48;100.00
4123;BME280;2075;51.062;6.920;2023-02-16T00:58:40;22529.81;;;-144.48;100.00
4123;BME280;2075;51.062;6.920;2023-02-16T01:01:28;19730.22;;;-144.48;100.00
4123;BME280;2075;51.062;6.920;2023-02-16T01:04:20;17695.66;;;-144.48;100.00
4123;BME280;2075;51.062;6.920;2023-02-16T01:07:10;16933.00;;;-144.48;100.00
4123;BME280;2075;51.062;6.920;2023-02-16T01:10:14;16678.81;;;-144.48;100.00
4123;BME280;2075;51.062;6.920;2023-02-16T01:13:17;16170.53;;;-144.48;100.00
4123;BME280;2075;51.062;6.920;2023-02-16T01:16:03;14392.13;;;-144.48;100.00
4123;BME280;2075;51.062;6.920;2023-02-16T01:18:49;15154.19;;;-144.48;100.00
4123;BME280;2075;51.062;6.920;2023-02-16T01:21:38;15154.19;;;-144.48;100.00
4123;BME280;2075;51.062;6.920;2023-02-16T01:24:23;16933.00;;;-144.48;100.00
4123;BME280;2075;51.062;6.920;2023-02-16T01:27:10;18204.19;;;-144.48;100.00
4123;BME280;2075;51.062;6.920;2023-02-16T01:29:56;20239.06;;;-144.48;100.00
4123;BME280;2075;51.062;6.920;2023-02-16T01:32:41;21257.00;;;-144.48;100.00
4123;BME280;2075;51.062;6.920;2023-02-16T01:35:32;23039.09;;;-144.48;100.00
4123;BME280;2075;51.062;6.920;2023-02-16T01:38:21;24567.38;;;-144.48;100.00
4123;BME280;2075;51.062;6.920;2023-02-16T01:41:13;25586.63;;;-144.48;100.00
4123;BME280;2075;51.062;6.920;2023-02-16T01:44:11;24057.88;;;-144.48;100.00
4123;BME280;2075;51.062;6.920;2023-02-16T01:47:01;22020.63;;;-144.48;100.00
4123;BME280;2075;51.062;6.920;2023-02-16T01:49:48;20748.00;;;-144.48;100.00
4123;BME280;2075;51.062;6.920;2023-02-16T01:52:36;18458.47;;;-144.48;100.00
4123;BME280;2075;51.062;6.920;2023-02-16T01:55:29;15408.25;;;-144.48;100.00
4123;BME280;2075;51.062;6.920;2023-02-16T01:58:19;15408.25;;;-144.48;100.00
4123;BME280;2075;51.062;6.920;2023-02-16T02:01:38;17187.19;;;-144.48;100.00
4123;BME280;2075;51.062;6.920;2023-02-16T02:04:28;16678.81;;;-144.48;100.00
4123;BME280;2075;51.062;6.920;2023-02-16T02:07:36;16170.53;;;-144.48;100.00
4123;BME280;2075;51.062;6.920;2023-02-16T02:10:29;13376.31;;;-144.48;100.00
4123;BME280;2075;51.062;6.920;2023-02-16T02:13:23;12107.00;;;-144.48;100.00
4123;BME280;2075;51.062;6.920;2023-02-16T02:16:15;12360.81;;;-144.48;100.00
4123;BME280;2075;51.062;6.920;2023-02-16T02:19:03;11853.19;;;-144.48;100.00
4123;BME280;2075;51.062;6.920;2023-02-16T02:25:44;7794.94;;;-144.48;100.00
4123;BME280;2075;51.062;6.920;2023-02-16T02:28:39;7288.00;;;-144.48;100.00
4123;BME280;2075;51.062;6.920;2023-02-16T02:31:39;5514.38;;;-144.48;100.00
4123;BME280;2075;51.062;6.920;2023-02-16T02:34:40;7034.56;;;-144.48;100.00
4123;BME280;2075;51.062;6.920;2023-02-16T02:37:40;9823.44;;;-144.48;100.00
4123;BME280;2075;51.062;6.920;2023-02-16T02:40:38;12614.66;;;-144.48;100.00
4123;BME280;2075;51.062;6.920;2023-02-16T02:43:30;13122.41;;;-144.48;100.00
4123;BME280;2075;51.062;6.920;2023-02-16T02:46:22;13122.41;;;-144.48;100.00
4123;BME280;2075;51.062;6.920;2023-02-16T02:49:09;12107.00;;;-144.48;100.00
4123;BME280;2075;51.062;6.920;2023-02-16T02:51:57;12614.66;;;-144.48;100.00
4123;BME280;2075;51.062;6.920;2023-02-16T02:54:44;13376.31;;;-144.48;100.00
4123;BME280;2075;51.062;6.920;2023-02-16T02:57:48;13376.31;;;-144.48;100.00
4123;BME280;2075;51.062;6.920;2023-02-16T03:00:52;10584.44;;;-144.48;100.00
4123;BME280;2075;51.062;6.920;2023-02-16T03:03:42;8301.94;;;-144.48;100.00
4123;BME280;2075;51.062;6.920;2023-02-16T03:06:31;9062.59;;;-144.48;100.00
4123;BME280;2075;51.062;6.920;2023-02-16T03:09:19;8809.03;;;-144.48;100.00
4123;BME280;2075;51.062;6.920;2023-02-16T03:12:09;10077.09;;;-144.48;100.00
4123;BME280;2075;51.062;6.920;2023-02-16T03:15:14;9823.44;;;-144.48;100.00
4123;BME280;2075;51.062;6.920;2023-02-16T03:18:02;9062.59;;;-144.48;100.00
4123;BME280;2075;51.062;6.920;2023-02-16T03:21:10;7794.94;;;-144.48;100.00
4123;BME280;2075;51.062;6.920;2023-02-16T03:24:18;7541.47;;;-144.48;100.00
4123;BME280;2075;51.062;6.920;2023-02-16T03:27:26;6527.75;;;-144.48;100.00
4123;BME280;2075;51.062;6.920;2023-02-16T03:30:31;6274.38;;;-144.48;100.00
4123;BME280;2075;51.062;6.920;2023-02-16T03:33:17;4248.06;;;-144.48;100.00
4123;BME280;2075;51.062;6.920;2023-02-16T03:36:03;2982.25;;;-144.48;100.00
4123;BME280;2075;51.062;6.920;2023-02-16T03:38:50;1969.97;;;-144.48;100.00
4123;BME280;2075;51.062;6.920;2023-02-16T03:41:43;1463.94;;;-144.48;100.00
4123;BME280;2075;51.062;6.920;2023-02-16T03:44:29;1210.94;;;-144.48;100.00
4123;BME280;2075;51.062;6.920;2023-02-16T03:47:14;452.09;;;-144.48;100.00
4123;BME280;2075;51.062;6.920;2023-02-16T03:50:00;-306.56;;;-144.48;100.00
4123;BME280;2075;51.062;6.920;2023-02-16T03:52:46;-1317.84;;;-144.48;100.00
4123;BME280;2075;51.062;6.920;2023-02-16T03:55:33;-1065.06;;;-144.48;100.00
4123;BME280;2075;51.062;6.920;2023-02-16T03:58:20;199.19;;;-144.48;100.00
4123;BME280;2075;51.062;6.920;2023-02-16T04:01:06;1969.97;;;-144.48;100.00
4123;BME280;2075;51.062;6.920;2023-02-16T04:03:51;2476.06;;;-144.48;100.00
4123;BME280;2075;51.062;6.920;2023-02-16T04:06:37;1210.94;;;-144.48;100.00
4123;BME280;2075;51.062;6.920;2023-02-16T04:09:23;705.03;;;-144.48;100.00
4123;BME280;2075;51.062;6.920;2023-02-16T04:12:10;705.03;;;-144.48;100.00
4123;BME280;2075;51.062;6.920;2023-02-16T04:15:16;452.09;;;-144.48;100.00
4123;BME280;2075;51.062;6.920;2023-02-16T04:18:02;1463.94;;;-144.48;100.00
4123;BME280;2075;51.062;6.920;2023-02-16T04:20:47;2223.00;;;-144.48;100.00
4123;BME280;2075;51.062;6.920;2023-02-16T04:23:33;3741.69;;;-144.48;100.00
4123;BME280;2075;51.062;6.920;2023-02-16T04:26:18;3741.69;;;-144.48;100.00
4123;BME280;2075;51.062;6.920;2023-02-16T04:29:05;5261.06;;;-144.48;100.00
4123;BME280;2075;51.062;6.920;2023-02-16T04:31:50;7541.47;;;-144.48;100.00
4123;BME280;2075;51.062;6.920;2023-02-16T04:34:36;8809.03;;;-144.48;100.00
4123;BME280;2075;51.062;6.920;2023-02-16T04:37:21;9316.19;;;-144.48;100.00
4123;BME280;2075;51.062;6.920;2023-02-16T04:40:08;8555.47;;;-144.48;100.00
4123;BME280;2075;51.062;6.920;2023-02-16T04:42:53;8301.94;;;-144.48;100.00
4123;BME280;2075;51.062;6.920;2023-02-16T04:45:40;8555.47;;;-144.48;100.00
4123;BME280;2075;51.062;6.920;2023-02-16T04:48:25;8048.44;;;-144.48;100.00
4123;BME280;2075;51.062;6.920;2023-02-16T04:51:11;7541.47;;;-144.48;100.00
4123;BME280;2075;51.062;6.920;2023-02-16T04:53:56;8048.44;;;-144.48;100.00
4123;BME280;2075;51.062;6.920;2023-02-16T04:56:43;7541.47;;;-144.48;100.00
4123;BME280;2075;51.062;6.920;2023-02-16T04:59:28;6527.75;;;-144.48;100.00
4123;BME280;2075;51.062;6.920;2023-02-16T05:02:15;6527.75;;;-144.48;100.00
4123;BME280;2075;51.062;6.920;2023-02-16T05:05:00;6021.03;;;-144.48;100.00
4123;BME280;2075;51.062;6.920;2023-02-16T05:07:45;6274.38;;;-144.48;100.00
4123;BME280;2075;51.062;6.920;2023-02-16T05:10:31;6274.38;;;-144.48;100.00
4123;BME280;2075;51.062;6.920;2023-02-16T05:13:17;7034.56;;;-144.48;100.00
4123;BME280;2075;51.062;6.920;2023-02-16T05:16:20;7541.47;;;-144.48;100.00
4123;BME280;2075;51.062;6.920;2023-02-16T05:19:07;9062.59;;;-144.48;100.00
4123;BME280;2075;51.062;6.920;2023-02-16T05:21:52;9569.81;;;-144.48;100.00
4123;BME280;2075;51.062;6.920;2023-02-16T05:24:38;11345.63;;;-144.48;100.00
4123;BME280;2075;51.062;6.920;2023-02-16T05:27:24;12360.81;;;-144.48;100.00
4123;BME280;2075;51.062;6.920;2023-02-16T05:30:12;13884.19;;;-144.48;100.00
4123;BME280;2075;51.062;6.920;2023-02-16T05:32:58;13884.19;;;-144.48;100.00
4123;BME280;2075;51.062;6.920;2023-02-16T05:35:44;13376.31;;;-144.48;100.00
4123;BME280;2075;51.062;6.920;2023-02-16T05:38:30;12107.00;;;-144.48;100.00
4123;BME280;2075;51.062;6.920;2023-02-16T05:41:15;12107.00;;;-144.48;100.00
4123;BME280;2075;51.062;6.920;2023-02-16T05:44:07;13122.41;;;-144.48;100.00
4123;BME280;2075;51.062;6.920;2023-02-16T05:46:52;14900.13;;;-144.48;100.00
4123;BME280;2075;51.062;6.920;2023-02-16T05:49:38;14646.13;;;-144.48;100.00
4123;BME280;2075;51.062;6.920;2023-02-16T05:52:25;15408.25;;;-144.48;100.00
4123;BME280;2075;51.062;6.920;2023-02-16T05:55:10;16933.00;;;-144.48;100.00
4123;BME280;2075;51.062;6.920;2023-02-16T05:57:56;17187.19;;;-144.48;100.00
4123;BME280;2075;51.062;6.920;2023-02-16T06:00:41;17187.19;;;-144.48;100.00
4123;BME280;2075;51.062;6.920;2023-02-16T06:03:27;17441.41;;;-144.48;100.00
4123;BME280;2075;51.062;6.920;2023-02-16T06:06:12;17187.19;;;-144.48;100.00
4123;BME280;2075;51.062;6.920;2023-02-16T06:08:59;16933.00;;;-144.48;100.00
4123;BME280;2075;51.062;6.920;2023-02-16T06:11:44;17187.19;;;-144.48;100.00
4123;BME280;2075;51.062;6.920;2023-02-16T06:14:32;17695.66;;;-144.48;100.00
4123;BME280;2075;51.062;6.920;2023-02-16T06:17:17;17187.19;;;-144.48;100.00
4123;BME280;2075;51.062;6.920;2023-02-16T06:20:04;18204.19;;;-144.48;100.00
4123;BME280;2075;51.062;6.920;2023-02-16T06:22:50;18967.13;;;-144.48;100.00
4123;BME280;2075;51.062;6.920;2023-02-16T06:25:37;19984.66;;;-144.48;100.00
4123;BME280;2075;51.062;6.920;2023-02-16T06:28:23;23548.44;;;-144.48;100.00
4123;BME280;2075;51.062;6.920;2023-02-16T06:31:09;28901.31;;;-144.48;100.00
4123;BME280;2075;51.062;6.920;2023-02-16T06:33:54;31708.63;;;-144.48;100.00
4123;BME280;2075;51.062;6.920;2023-02-16T06:36:40;34007.25;;;-144.48;100.00
4123;BME280;2075;51.062;6.920;2023-02-16T06:39:25;35540.56;;;-144.48;100.00
4123;BME280;2075;51.062;6.920;2023-02-16T06:42:12;36818.88;;;-144.48;100.00
4123;BME280;2075;51.062;6.920;2023-02-16T06:44:57;38865.16;;;-144.48;100.00
4123;BME280;2075;51.062;6.920;2023-02-16T06:47:43;40912.69;;;-144.48;100.00
4123;BME280;2075;51.062;6.920;2023-02-16T06:50:28;44755.16;;;-144.48;100.00
4123;BME280;2075;51.062;6.920;2023-02-16T06:53:14;48602.03;;;-144.48;100.00
4123;BME280;2075;51.062;6.920;2023-02-16T06:55:59;52453.31;;;-144.48;100.00
4123;BME280;2075;51.062;6.920;2023-02-16T06:58:46;58624.47;;;-144.48;100.00
4123;BME280;2075;51.062;6.920;2023-02-16T07:01:32;60684.00;;;-144.48;100.00
4123;BME280;2075;51.062;6.920;2023-02-16T07:04:17;64806.84;;;-144.48;100.00
4123;BME280;2075;51.062;6.920;2023-02-16T07:07:03;66354.19;;;-144.48;100.00
4123;BME280;2075;51.062;6.920;2023-02-16T07:09:49;65838.34;;;-144.48;100.00
4123;BME280;2075;51.062;6.920;2023-02-16T07:12:34;68418.44;;;-144.48;100.00
4123;BME280;2075;51.062;6.920;2023-02-16T07:15:21;75529.78;;;-144.48;100.00
4123;BME280;2075;51.062;6.920;2023-02-16T07:18:07;81469.56;;;-144.48;100.00
4123;BME280;2075;51.062;6.920;2023-02-16T07:20:52;83751.53;;;-144.48;100.00
4123;BME280;2075;51.062;6.920;2023-02-16T07:23:38;84624.63;;;-144.48;100.00
4123;BME280;2075;51.062;6.920;2023-02-16T07:26:23;85390.56;;;-144.48;100.00
4123;BME280;2075;51.062;6.920;2023-02-16T07:29:08;86440.41;;;-144.48;100.00
4123;BME280;2075;51.062;6.920;2023-02-16T07:31:55;85964.09;;;-144.48;100.00
4123;BME280;2075;51.062;6.920;2023-02-16T07:34:41;86075.56;;;-144.48;100.00
4123;BME280;2075;51.062;6.920;2023-02-16T07:37:27;86708.00;;;-144.48;100.00
4123;BME280;2075;51.062;6.920;2023-02-16T07:40:12;86101.91;;;-144.48;100.00
4123;BME280;2075;51.062;6.920;2023-02-16T07:42:58;85629.69;;;-144.48;100.00
4123;BME280;2075;51.062;6.920;2023-02-16T07:45:53;81331.94;;;-144.48;100.00
4123;BME280;2075;51.062;6.920;2023-02-16T07:48:40;79854.69;;;-144.48;100.00
4123;BME280;2075;51.062;6.920;2023-02-16T07:51:27;81862.28;;;-144.48;100.00
4123;BME280;2075;51.062;6.920;2023-02-16T07:54:13;82949.53;;;-144.48;100.00
4123;BME280;2075;51.062;6.920;2023-02-16T07:56:59;84582.09;;;-144.48;100.00
4123;BME280;2075;51.062;6.920;2023-02-16T07:59:44;87068.84;;;-144.48;100.00
4123;BME280;2075;51.062;6.920;2023-02-16T08:02:30;89689.31;;;-144.48;100.00
4123;BME280;2075;51.062;6.920;2023-02-16T08:05:17;90074.84;;;-144.48;100.00
4123;BME280;2075;51.062;6.920;2023-02-16T08:08:03;91434.66;;;-144.48;100.00
4123;BME280;2075;51.062;6.920;2023-02-16T08:10:48;91804.16;;;-144.48;100.00
4123;BME280;2075;51.062;6.920;2023-02-16T08:13:34;92187.88;;;-144.48;100.00
4123;BME280;2075;51.062;6.920;2023-02-16T08:16:21;92740.19;;;-144.48;100.00
4123;BME280;2075;51.062;6.920;2023-02-16T08:19:07;92998.13;;;-144.48;100.00
4123;BME280;2075;51.062;6.920;2023-02-16T08:21:57;92878.28;;;-144.48;100.00
4123;BME280;2075;51.062;6.920;2023-02-16T08:24:43;92346.25;;;-144.48;100.00
4123;BME280;2075;51.062;6.920;2023-02-16T08:27:28;92445.75;;;-144.48;100.00
4123;BME280;2075;51.062;6.920;2023-02-16T08:30:14;92193.97;;;-144.48;100.00
4123;BME280;2075;51.062;6.920;2023-02-16T08:33:01;92774.72;;;-144.48;100.00
4123;BME280;2075;51.062;6.920;2023-02-16T08:35:46;93349.47;;;-144.48;100.00
4123;BME280;2075;51.062;6.920;2023-02-16T08:38:33;93156.53;;;-144.48;100.00
4123;BME280;2075;51.062;6.920;2023-02-16T08:41:21;92849.84;;;-144.48;100.00
4123;BME280;2075;51.062;6.920;2023-02-16T08:44:08;93168.72;;;-144.48;100.00
4123;BME280;2075;51.062;6.920;2023-02-16T08:46:55;93286.50;;;-144.48;100.00
4123;BME280;2075;51.062;6.920;2023-02-16T08:49:41;93144.34;;;-144.48;100.00
4123;BME280;2075;51.062;6.920;2023-02-16T08:52:30;93457.13;;;-144.48;100.00
4123;BME280;2075;51.062;6.920;2023-02-16T08:55:16;93741.50;;;-144.48;100.00
4123;BME280;2075;51.062;6.920;2023-02-16T08:58:03;93922.31;;;-144.48;100.00
4123;BME280;2075;51.062;6.920;2023-02-16T09:00:49;94184.38;;;-144.48;100.00
4123;BME280;2075;51.062;6.920;2023-02-16T09:03:35;94397.69;;;-144.48;100.00
4123;BME280;2075;51.062;6.920;2023-02-16T09:06:21;94844.72;;;-144.48;97.82
4123;BME280;2075;51.062;6.920;2023-02-16T09:09:08;94570.41;;;-144.48;95.58
4123;BME280;2075;51.062;6.920;2023-02-16T09:11:54;94576.50;;;-144.48;95.31
4123;BME280;2075;51.062;6.920;2023-02-16T09:14:41;94525.69;;;-144.48;95.76
4123;BME280;2075;51.062;6.920;2023-02-16T09:17:27;94483.03;;;-144.48;95.71
4123;BME280;2075;51.062;6.920;2023-02-16T09:20:14;94509.44;;;-144.48;95.77
4123;BME280;2075;51.062;6.920;2023-02-16T09:22:59;94550.09;;;-144.48;94.27
4123;BME280;2075;51.062;6.920;2023-02-16T09:25:45;94596.81;;;-144.48;92.41
4123;BME280;2075;51.062;6.920;2023-02-16T09:28:33;94633.38;;;-144.48;89.80
4123;BME280;2075;51.062;6.920;2023-02-16T09:31:20;94615.09;;;-144.48;87.21
4123;BME280;2075;51.062;6.920;2023-02-16T09:34:15;94653.69;;;-144.48;84.48
4123;BME280;2075;51.062;6.920;2023-02-16T09:37:00;94676.06;;;-144.48;83.38
4123;BME280;2075;51.062;6.920;2023-02-16T09:39:46;94688.25;;;-144.48;83.81
4123;BME280;2075;51.062;6.920;2023-02-16T09:42:37;94680.13;;;-144.48;84.94
4123;BME280;2075;51.062;6.920;2023-02-16T09:45:31;94645.56;;;-144.48;85.00
4123;BME280;2075;51.062;6.920;2023-02-16T09:48:29;94674.03;;;-144.48;83.31
4123;BME280;2075;51.062;6.920;2023-02-16T09:51:20;94873.16;;;-144.48;82.30
4123;BME280;2075;51.062;6.920;2023-02-16T09:54:15;94639.47;;;-144.48;80.96
4123;BME280;2075;51.062;6.920;2023-02-16T09:57:10;94604.94;;;-144.48;79.57
4123;BME280;2075;51.062;6.920;2023-02-16T10:00:03;94598.84;;;-144.48;79.48
4123;BME280;2075;51.062;6.920;2023-02-16T10:02:54;94625.25;;;-144.48;78.67
4123;BME280;2075;51.062;6.920;2023-02-16T10:05:46;94611.03;;;-144.48;78.35
4123;BME280;2075;51.062;6.920;2023-02-16T10:08:38;94602.91;;;-144.48;78.74
4123;BME280;2075;51.062;6.920;2023-02-16T10:11:28;94641.50;;;-144.48;77.67
4123;BME280;2075;51.062;6.920;2023-02-16T10:14:30;94602.91;;;-144.48;77.54
4123;BME280;2075;51.062;6.920;2023-02-16T10:17:23;94586.66;;;-144.48;77.83
4123;BME280;2075;51.062;6.920;2023-02-16T10:20:15;94562.28;;;-144.48;77.45
4123;BME280;2075;51.062;6.920;2023-02-16T10:23:08;94255.47;;;-144.48;76.15
4123;BME280;2075;51.062;6.920;2023-02-16T10:26:03;94582.59;;;-144.48;76.52
4123;BME280;2075;51.062;6.920;2023-02-16T10:28:52;94594.78;;;-144.48;77.22
4123;BME280;2075;51.062;6.920;2023-02-16T10:31:39;94842.69;;;-144.48;78.20
4123;BME280;2075;51.062;6.920;2023-02-16T10:34:39;94529.75;;;-144.48;77.65
4123;BME280;2075;51.062;6.920;2023-02-16T10:37:49;94584.63;;;-144.48;78.15
4123;BME280;2075;51.062;6.920;2023-02-16T10:40:44;94611.03;;;-144.48;78.79
4123;BME280;2075;51.062;6.920;2023-02-16T10:43:41;94621.19;;;-144.48;79.24
4123;BME280;2075;51.062;6.920;2023-02-16T10:46:31;94647.59;;;-144.48;81.09
4123;BME280;2075;51.062;6.920;2023-02-16T10:49:18;94649.63;;;-144.48;82.04
4123;BME280;2075;51.062;6.920;2023-02-16T10:52:06;94637.44;;;-144.48;83.61
4123;BME280;2075;51.062;6.920;2023-02-16T10:54:55;94649.63;;;-144.48;84.36
4123;BME280;2075;51.062;6.920;2023-02-16T10:57:40;94629.31;;;-144.48;84.50
4123;BME280;2075;51.062;6.920;2023-02-16T11:00:37;94590.72;;;-144.48;84.39
4123;BME280;2075;51.062;6.920;2023-02-16T11:03:29;94578.53;;;-144.48;83.86
4123;BME280;2075;51.062;6.920;2023-02-16T11:06:19;94619.16;;;-144.48;84.18
4123;BME280;2075;51.062;6.920;2023-02-16T11:09:04;94611.03;;;-144.48;84.13
4123;BME280;2075;51.062;6.920;2023-02-16T11:11:52;94596.81;;;-144.48;83.68
4123;BME280;2075;51.062;6.920;2023-02-16T11:14:37;94578.53;;;-144.48;83.79
4123;BME280;2075;51.062;6.920;2023-02-16T11:17:23;94556.19;;;-144.48;83.05
4123;BME280;2075;51.062;6.920;2023-02-16T11:20:24;94578.53;;;-144.48;80.45
4123;BME280;2075;51.062;6.920;2023-02-16T11:23:13;94558.22;;;-144.48;78.91
4123;BME280;2075;51.062;6.920;2023-02-16T11:26:02;94497.25;;;-144.48;76.55
4123;BME280;2075;51.062;6.920;2023-02-16T11:28:51;94533.81;;;-144.48;75.24
4123;BME280;2075;51.062;6.920;2023-02-16T11:31:38;94436.31;;;-144.48;73.48
4123;BME280;2075;51.062;6.920;2023-02-16T11:34:28;94489.13;;;-144.48;71.97
4123;BME280;2075;51.062;6.920;2023-02-16T11:37:23;94415.97;;;-144.48;71.66
4123;BME280;2075;51.062;6.920;2023-02-16T11:40:18;94444.44;;;-144.48;72.35
4123;BME280;2075;51.062;6.920;2023-02-16T11:43:04;94446.47;;;-144.48;72.86
4123;BME280;2075;51.062;6.920;2023-02-16T11:46:01;94411.91;;;-144.48;72.33
4123;BME280;2075;51.062;6.920;2023-02-16T11:48:48;94391.59;;;-144.48;70.37
4123;BME280;2075;51.062;6.920;2023-02-16T11:51:34;94365.19;;;-144.48;69.17
4123;BME280;2075;51.062;6.920;2023-02-16T11:54:19;94296.13;;;-144.48;68.49
4123;BME280;2075;51.062;6.920;2023-02-16T11:57:06;94371.28;;;-144.48;68.59
4123;BME280;2075;51.062;6.920;2023-02-16T11:59:52;94381.44;;;-144.48;68.94
4123;BME280;2075;51.062;6.920;2023-02-16T12:02:49;94381.44;;;-144.48;70.41
4123;BME280;2075;51.062;6.920;2023-02-16T12:05:51;94391.59;;;-144.48;70.36
4123;BME280;2075;51.062;6.920;2023-02-16T12:08:58;94375.34;;;-144.48;68.33
4123;BME280;2075;51.062;6.920;2023-02-16T12:11:56;94298.16;;;-144.48;66.85
4123;BME280;2075;51.062;6.920;2023-02-16T12:14:54;94334.72;;;-144.48;65.71
4123;BME280;2075;51.062;6.920;2023-02-16T12:17:51;94330.66;;;-144.48;66.46
4123;BME280;2075;51.062;6.920;2023-02-16T12:20:46;94344.88;;;-144.48;68.06
4123;BME280;2075;51.062;6.920;2023-02-16T12:23:39;94365.19;;;-144.48;69.62
4123;BME280;2075;51.062;6.920;2023-02-16T12:26:37;94444.44;;;-144.48;69.41
4123;BME280;2075;51.062;6.920;2023-02-16T12:29:36;94413.94;;;-144.48;71.07
4123;BME280;2075;51.062;6.920;2023-02-16T12:32:33;94393.63;;;-144.48;70.78
4123;BME280;2075;51.062;6.920;2023-02-16T12:35:37;94428.16;;;-144.48;72.61
4123;BME280;2075;51.062;6.920;2023-02-16T12:38:36;94448.50;;;-144.48;75.21
4123;BME280;2075;51.062;6.920;2023-02-16T12:41:38;94446.47;;;-144.48;75.63
4123;BME280;2075;51.062;6.920;2023-02-16T12:44:31;94432.25;;;-144.48;76.13
4123;BME280;2075;51.062;6.920;2023-02-16T12:47:22;94446.47;;;-144.48;76.89
4123;BME280;2075;51.062;6.920;2023-02-16T12:50:15;94338.78;;;-144.48;77.15
4123;BME280;2075;51.062;6.920;2023-02-16T12:53:07;94440.38;;;-144.48;77.59
4123;BME280;2075;51.062;6.920;2023-02-16T12:55:59;94462.72;;;-144.48;77.97
4123;BME280;2075;51.062;6.920;2023-02-16T12:58:48;94415.97;;;-144.48;79.92
4123;BME280;2075;51.062;6.920;2023-02-16T13:01:38;94401.75;;;-144.48;78.87
4123;BME280;2075;51.062;6.920;2023-02-16T13:04:29;94413.94;;;-144.48;79.25
4123;BME280;2075;51.062;6.920;2023-02-16T13:07:23;94399.72;;;-144.48;79.02
4123;BME280;2075;51.062;6.920;2023-02-16T13:10:18;94249.38;;;-144.48;79.07
4123;BME280;2075;51.062;6.920;2023-02-16T13:13:09;94395.66;;;-144.48;78.68
4123;BME280;2075;51.062;6.920;2023-02-16T13:16:00;94379.41;;;-144.48;78.13
4123;BME280;2075;51.062;6.920;2023-02-16T13:18:49;94363.16;;;-144.48;77.10
4123;BME280;2075;51.062;6.920;2023-02-16T13:22:05;94336.75;;;-144.48;74.66
4123;BME280;2075;51.062;6.920;2023-02-16T13:28:11;94306.28;;;-144.48;73.80
4123;BME280;2075;51.062;6.920;2023-02-16T13:31:16;94318.47;;;-144.48;75.44
4123;BME280;2075;51.062;6.920;2023-02-16T13:34:28;94318.47;;;-144.48;75.14
4123;BME280;2075;51.062;6.920;2023-02-16T13:37:28;94306.28;;;-144.48;74.44
4123;BME280;2075;51.062;6.920;2023-02-16T13:40:47;94257.50;;;-144.48;72.49
4123;BME280;2075;51.062;6.920;2023-02-16T13:43:43;94300.19;;;-144.48;71.38
4123;BME280;2075;51.062;6.920;2023-02-16T13:46:33;94218.91;;;-144.48;70.57
4123;BME280;2075;51.062;6.920;2023-02-16T13:49:29;94249.38;;;-144.48;69.18
4123;BME280;2075;51.062;6.920;2023-02-16T13:52:28;94229.06;;;-144.48;69.64
4123;BME280;2075;51.062;6.920;2023-02-16T13:55:22;94200.63;;;-144.48;68.17
4123;BME280;2075;51.062;6.920;2023-02-16T13:58:27;94160.00;;;-144.48;67.84
4123;BME280;2075;51.062;6.920;2023-02-16T14:01:40;94202.66;;;-144.48;68.15
4123;BME280;2075;51.062;6.920;2023-02-16T14:04:59;94153.91;;;-144.48;67.64
4123;BME280;2075;51.062;6.920;2023-02-16T14:07:44;94147.81;;;-144.48;66.95
4123;BME280;2075;51.062;6.920;2023-02-16T14:13:57;94160.00;;;-144.48;64.59
4123;BME280;2075;51.062;6.920;2023-02-16T14:16:44;94123.44;;;-144.48;64.54
4123;BME280;2075;51.062;6.920;2023-02-16T14:19:29;94499.28;;;-144.48;64.06
4123;BME280;2075;51.062;6.920;2023-02-16T14:22:18;94164.06;;;-144.48;65.41
4123;BME280;2075;51.062;6.920;2023-02-16T14:25:27;94147.81;;;-144.48;65.77
4123;BME280;2075;51.062;6.920;2023-02-16T14:31:42;94172.19;;;-144.48;65.12
4123;BME280;2075;51.062;6.920;2023-02-16T14:34:35;94196.56;;;-144.48;64.80
4123;BME280;2075;51.062;6.920;2023-02-16T14:37:33;94149.84;;;-144.48;64.72
4123;BME280;2075;51.062;6.920;2023-02-16T14:40:21;94127.50;;;-144.48;64.39
4123;BME280;2075;51.062;6.920;2023-02-16T14:43:25;94145.78;;;-144.48;63.98
4123;BME280;2075;51.062;6.920;2023-02-16T14:46:25;94147.81;;;-144.48;63.20
4123;BME280;2075;51.062;6.920;2023-02-16T14:49:34;94131.56;;;-144.48;63.46
4123;BME280;2075;51.062;6.920;2023-02-16T14:52:50;94192.50;;;-144.48;65.51
4123;BME280;2075;51.062;6.920;2023-02-16T14:56:10;94172.19;;;-144.48;65.64
4123;BME280;2075;51.062;6.920;2023-02-16T14:59:04;94204.69;;;-144.48;67.41
4123;BME280;2075;51.062;6.920;2023-02-16T15:01:54;94267.66;;;-144.48;68.86
4123;BME280;2075;51.062;6.920;2023-02-16T15:04:41;94281.88;;;-144.48;70.82
4123;BME280;2075;51.062;6.920;2023-02-16T15:07:26;94186.41;;;-144.48;70.49
4123;BME280;2075;51.062;6.920;2023-02-16T15:10:12;94222.97;;;-144.48;69.90
4123;BME280;2075;51.062;6.920;2023-02-16T15:12:58;94263.59;;;-144.48;70.96